Homestead, FL

8:45 PM EDT on March 26, 2017 (GMT -0400)
Leisure City | | Change Station

Elev 23 ft 25.49 °N, 80.43 °W | Updated 0 second ago

Partly Cloudy
Partly Cloudy
75.6 °F
Feels Like 77 °F
N
6.0
Wind Variable Wind from ENE
Gusts 6.0 mph

Today
High -- | Low -- °F
--% Chance of Precip.
Yesterday
High -- | Low -- °F
Precip. -- in
Pressure 30.07 in
Visibility 10.0 miles
Clouds Few 3100 ft
Heat Index 77 °F
Dew Point 61 °F
Humidity 66%
Rainfall 0.49 in
Snow Depth Not available.
7:19 AM 7:35 PM
Waning Crescent, 2% visible
METAR KHST 262358Z AUTO 07009KT 10SM FEW031 23/19 A3006 RMK AO2 SLP182 60000 T02290185 10261 20229 53006
Pressure 30.07 in
Visibility 10.0 miles
Clouds Few 3100 ft
Heat Index 77 °F
Dew Point 61 °F
Humidity 66%
Rainfall 0.49 in
Snow Depth Not available.
7:19 AM 7:35 PM
Waning Crescent, 2% visible
METAR KHST 262358Z AUTO 07009KT 10SM FEW031 23/19 A3006 RMK AO2 SLP182 60000 T02290185 10261 20229 53006

Get Severe Weather Alerts

Thanks for signing up!

Be on the lookout for a verification email in your inbox.

You'll start receiving the daily forecast at 8 AM.

×

10-Day Weather Forecast

Almanac

Astronomy

Mar. 26, 2017 Rise Set
Actual Time
Civil Twilight
Nautical Twilight
Astronomical Twilight
Moon
Length of Visible Light
Length of Day
Tomorrow will be .
, % of the Moon is Illuminated

Today's Extremes

State Highs State Lows

Community

WunderPhotos

Upload Photos

1,962,540 photos uploaded!

WunderBlog® & News

Nearby

Air Quality

  Air Quality AQ Index Pollutant
Not available.

Snow Depth

Station Depth Elevation

Earthquake Activity

City Distance Mag. Time & Date
Minimum magnitude displayed is 2.5.

Earthquake Activity

City Distance Mag. Time & Date
Minimum magnitude displayed is 2.5.

Coastal Water Temperatures

Place Temperature

Stations

Nearby Weather Stations

Station Location Temp. Windchill Dew Point Humidity Wind Precip. Elev Updated Type
                   

Watches & Warnings

There are currently no watches in effect.